Forside
METAR-TAF:

METAR-TAF

Lufthavne :

Decatur, Illinois, USA

Breddekreds: 39-50-04N, længdekreds: 088-51-56W, højde: 208 m

Aktuelle vejr

Denne rapport blev lavet for 45 minutter siden, kl. 17:54 UTC
Vind 20 kt fra østsydøst
Temperatur -8°C
Fugtighed 62%
Tryk 1032 hPa
Sigt: 16.1 km
Brudte skyer i en højde af 10000 ft

METAR: KDEC 211754Z 11020KT 10SM BKN100 M08/M14 A3048 RMK AO2 SLP336 T10781139 11078 21156 58017 $

Tid: 12:39 (18:39 UTC)

Vejrudsigter

Denne rapport blev lavet for 1 time og 11 minutter siden, kl. 17:28 UTC
Foreløbig gælder fra 21 på 18 UTC til 22 på 18 UTC
Vind 17 kt fra sydøst med vindstød på up til 24 kt
Sigt: 10 km
Brudte skyer i en højde af 12000 ft
Fra 22 på 1000 UTC
Vind 15 kt fra sydsydøst med vindstød på up til 23 kt
Sigt: 10 km
Brudte skyer i en højde af 9000 ft
Fra 22 på 1500 UTC
Vind 17 kt fra syd med vindstød på up til 26 kt
Sigt: 10 km
Overskyet i en højde af 3000 ft

TAF: KDEC 211728Z 2118/2218 13017G24KT P6SM BKN120 FM221000 15015G23KT P6SM BKN090 WS020/18045KT FM221500 17017G26KT P6SM OVC030 WS020/19050KT

Vejrobservationer og prognoser fra mere end 4000 lufthavne (METAR og TAF).

De gule og røde prikker repræsenterer de meteorologiske stationer.

Flyt musen over at se navnet på stationen.

Så klik over at se vejr observationer og prognoser.

At skifte det kort: Klik på de grønne knapper med et sort kors for at zoome ind; på den grønne knap med en bindestreg for at zoome ud; eller på de grønne pile for tilstødende kort.


METAR-TAF: